createdAt,value
2023-03-16T00:04:55.919Z,-0.40
2023-03-16T00:09:59.291Z,-0.40
2023-03-16T00:15:03.407Z,-0.40
2023-03-16T00:20:09.461Z,-0.40
2023-03-16T00:25:15.318Z,-0.40
2023-03-16T00:30:19.167Z,-0.50
2023-03-16T00:35:23.781Z,-0.50
2023-03-16T00:40:27.205Z,-0.40
2023-03-16T00:45:30.517Z,-0.40
2023-03-16T00:50:35.148Z,-0.30
2023-03-16T00:55:38.449Z,-0.30
2023-03-16T01:00:43.030Z,-0.30
2023-03-16T01:05:47.655Z,-0.30
2023-03-16T01:10:51.240Z,-0.20
2023-03-16T01:15:54.551Z,-0.20
2023-03-16T01:20:59.192Z,-0.20
2023-03-16T01:26:02.936Z,-0.30
2023-03-16T01:31:08.215Z,-0.30
2023-03-16T01:36:15.670Z,-0.20
2023-03-16T01:41:32.057Z,-0.20
2023-03-16T01:46:35.508Z,-0.10
2023-03-16T01:51:46.814Z,-0.20
2023-03-16T01:56:58.109Z,-0.20
2023-03-16T02:02:02.793Z,-0.30
2023-03-16T02:07:11.344Z,-0.30
2023-03-16T02:12:18.954Z,-0.30
2023-03-16T02:17:28.623Z,-0.30
2023-03-16T02:22:42.533Z,-0.30
2023-03-16T02:27:54.540Z,-0.40
2023-03-16T02:32:59.468Z,-0.40
2023-03-16T02:38:03.325Z,-0.40
2023-03-16T02:43:14.577Z,-0.40
2023-03-16T02:48:29.778Z,-0.30
2023-03-16T02:53:33.146Z,-0.30
2023-03-16T02:58:38.378Z,-0.40
2023-03-16T03:03:48.497Z,-0.40
2023-03-16T03:08:52.430Z,-0.40
2023-03-16T03:13:57.053Z,-0.40
2023-03-16T03:19:04.933Z,-0.30
2023-03-16T03:24:12.762Z,-0.30
2023-03-16T03:29:16.211Z,-0.30
2023-03-16T03:34:20.946Z,-0.30
2023-03-16T03:39:24.718Z,-0.30
2023-03-16T03:44:28.749Z,-0.40
2023-03-16T03:49:33.779Z,-0.40
2023-03-16T03:54:37.830Z,-0.40
2023-03-16T03:59:45.887Z,-0.30
2023-03-16T04:05:06.387Z,-0.30
2023-03-16T04:10:10.391Z,-0.30
2023-03-16T04:15:17.416Z,-0.30
2023-03-16T04:20:37.233Z,-0.30
2023-03-16T04:25:41.251Z,-0.40
2023-03-16T04:30:45.986Z,-0.40
2023-03-16T04:36:03.685Z,-0.40
2023-03-16T04:41:09.319Z,-0.50
2023-03-16T04:46:18.941Z,-0.60
2023-03-16T04:51:24.206Z,-0.60
2023-03-16T04:56:41.606Z,-0.50
2023-03-16T05:02:08.180Z,-0.50
2023-03-16T05:07:13.767Z,-0.60
2023-03-16T05:12:21.341Z,-0.50
2023-03-16T05:17:29.767Z,-0.60
2023-03-16T05:22:35.243Z,-0.50
2023-03-16T05:28:02.107Z,-0.50
2023-03-16T05:33:30.300Z,-0.40
2023-03-16T05:38:43.853Z,-0.30
2023-03-16T05:43:51.462Z,-0.30
2023-03-16T05:48:56.316Z,-0.30
2023-03-16T05:54:02.128Z,-0.20
2023-03-16T05:59:11.672Z,0.00
2023-03-16T06:04:17.102Z,0.20
2023-03-16T06:09:22.168Z,0.30
2023-03-16T06:14:25.713Z,0.50
2023-03-16T06:19:32.148Z,0.60
2023-03-16T06:24:40.023Z,0.80
2023-03-16T06:29:43.771Z,1.00
2023-03-16T06:34:47.905Z,1.10
2023-03-16T06:39:53.135Z,1.40
2023-03-16T06:44:57.172Z,1.80
2023-03-16T06:50:00.626Z,1.90
2023-03-16T06:55:06.605Z,1.90
2023-03-16T07:00:15.704Z,2.00
2023-03-16T07:05:19.224Z,2.20
2023-03-16T07:10:26.247Z,2.40
2023-03-16T07:15:29.762Z,2.60
2023-03-16T07:20:35.725Z,2.80
2023-03-16T07:25:45.158Z,3.00
2023-03-16T07:31:02.905Z,3.20
2023-03-16T07:36:13.166Z,3.50
2023-03-16T07:41:25.085Z,3.80
2023-03-16T07:46:28.780Z,3.90
2023-03-16T07:51:32.143Z,4.20
2023-03-16T07:56:48.278Z,4.40
2023-03-16T08:02:01.372Z,4.60
2023-03-16T08:07:05.139Z,4.60
2023-03-16T08:12:24.661Z,4.70
2023-03-16T08:17:28.347Z,4.90
2023-03-16T08:22:32.771Z,5.10
2023-03-16T08:27:38.838Z,5.30
2023-03-16T08:32:43.598Z,5.50
2023-03-16T08:37:47.488Z,5.70
2023-03-16T08:42:52.503Z,5.90
2023-03-16T08:47:56.284Z,6.00
2023-03-16T08:52:59.636Z,6.30
2023-03-16T08:58:04.324Z,6.50
2023-03-16T09:03:08.156Z,6.60
2023-03-16T09:08:12.720Z,6.80
2023-03-16T09:13:17.417Z,6.90
2023-03-16T09:18:21.266Z,7.10
2023-03-16T09:23:24.786Z,7.30
2023-03-16T09:28:30.863Z,7.50
2023-03-16T09:33:35.431Z,7.60
2023-03-16T09:38:39.335Z,7.70
2023-03-16T09:44:03.703Z,7.90
2023-03-16T09:49:08.019Z,8.10
2023-03-16T09:54:21.815Z,8.30
2023-03-16T09:59:29.172Z,8.50
2023-03-16T10:04:45.088Z,8.60
2023-03-16T10:09:56.703Z,8.70
2023-03-16T10:15:08.678Z,8.70
2023-03-16T10:20:17.978Z,8.80
2023-03-16T10:25:26.570Z,9.00
2023-03-16T10:30:34.413Z,9.10
2023-03-16T10:35:46.063Z,9.00
2023-03-16T10:40:49.586Z,9.20
2023-03-16T10:46:00.870Z,9.30
2023-03-16T10:51:09.425Z,9.10
2023-03-16T10:56:15.175Z,9.20
2023-03-16T11:01:22.907Z,9.40
2023-03-16T11:06:31.188Z,9.40
2023-03-16T11:11:35.390Z,9.50
2023-03-16T11:16:44.143Z,9.40
2023-03-16T11:21:55.161Z,9.40
2023-03-16T11:27:02.257Z,9.20
2023-03-16T11:32:15.393Z,9.20
2023-03-16T11:37:32.526Z,9.10
2023-03-16T11:42:40.193Z,9.20
2023-03-16T11:48:11.163Z,9.20
2023-03-16T11:53:22.815Z,9.20
2023-03-16T11:58:45.372Z,9.20
2023-03-16T12:04:24.560Z,9.40
2023-03-16T12:09:59.187Z,9.50
2023-03-16T12:15:24.348Z,9.80
2023-03-16T12:20:32.058Z,10.00
2023-03-16T12:25:40.353Z,10.10
2023-03-16T12:30:51.238Z,10.20
2023-03-16T12:36:02.963Z,10.00
2023-03-16T12:41:26.906Z,10.10
2023-03-16T12:46:38.974Z,10.20
2023-03-16T12:51:44.163Z,10.20
2023-03-16T12:56:50.796Z,10.20
2023-03-16T13:01:58.907Z,10.20
2023-03-16T13:07:09.526Z,10.20
2023-03-16T13:12:26.426Z,10.30
2023-03-16T13:17:32.468Z,10.40
2023-03-16T13:22:53.230Z,10.20
2023-03-16T13:28:00.532Z,10.30
2023-03-16T13:33:16.650Z,10.40
2023-03-16T13:38:22.981Z,10.30
2023-03-16T13:43:30.193Z,10.40
2023-03-16T13:48:40.327Z,10.40
2023-03-16T13:53:44.965Z,10.50
2023-03-16T13:58:52.097Z,10.30
2023-03-16T14:03:58.607Z,10.40
2023-03-16T14:09:05.240Z,10.40
2023-03-16T14:14:18.550Z,10.20
2023-03-16T14:19:28.591Z,10.30
2023-03-16T14:24:36.297Z,10.40
2023-03-16T14:29:44.294Z,10.30
2023-03-16T14:34:50.943Z,10.10
2023-03-16T14:40:03.264Z,10.00
2023-03-16T14:45:14.242Z,10.10
2023-03-16T14:50:24.189Z,10.10
2023-03-16T14:55:28.222Z,10.20
2023-03-16T15:00:42.689Z,10.10
2023-03-16T15:05:52.050Z,10.10
2023-03-16T15:10:56.434Z,10.00
2023-03-16T15:16:01.227Z,9.90
2023-03-16T15:21:08.028Z,9.90
2023-03-16T15:26:12.258Z,9.90
2023-03-16T15:31:17.218Z,9.90
2023-03-16T15:36:24.380Z,10.00
2023-03-16T15:41:32.341Z,9.90
2023-03-16T15:46:43.216Z,9.80
2023-03-16T15:51:46.570Z,9.70
2023-03-16T15:56:54.450Z,9.50
2023-03-16T16:01:59.503Z,9.40
2023-03-16T16:07:02.932Z,9.40
2023-03-16T16:12:06.850Z,9.30
2023-03-16T16:17:15.730Z,9.30
2023-03-16T16:22:19.100Z,9.30
2023-03-16T16:27:22.570Z,9.30
2023-03-16T16:32:27.386Z,9.30
2023-03-16T16:37:31.044Z,9.30
2023-03-16T16:42:34.565Z,9.30
2023-03-16T16:47:39.214Z,9.20
2023-03-16T16:52:42.752Z,9.10
2023-03-16T16:57:48.032Z,9.10
2023-03-16T17:02:55.884Z,9.00
2023-03-16T17:08:04.070Z,8.80
2023-03-16T17:13:07.898Z,8.70
2023-03-16T17:18:14.953Z,8.50
2023-03-16T17:23:29.263Z,8.40
2023-03-16T17:28:38.697Z,8.30
2023-03-16T17:33:43.416Z,8.30
2023-03-16T17:38:47.414Z,8.40
2023-03-16T17:43:51.187Z,8.40
2023-03-16T17:48:56.697Z,8.40
2023-03-16T17:53:59.756Z,8.40
2023-03-16T17:59:13.782Z,8.20
2023-03-16T18:04:20.130Z,8.10
2023-03-16T18:09:23.663Z,7.90
2023-03-16T18:14:35.351Z,7.70
2023-03-16T18:19:40.857Z,7.60
2023-03-16T18:24:44.989Z,7.50
2023-03-16T18:29:49.128Z,7.50
2023-03-16T18:34:55.009Z,7.50
2023-03-16T18:39:58.397Z,7.50
2023-03-16T18:45:01.736Z,7.50
2023-03-16T18:50:07.747Z,7.40
2023-03-16T18:55:17.097Z,7.40
2023-03-16T19:00:22.733Z,7.40
2023-03-16T19:05:31.760Z,7.30
2023-03-16T19:10:37.500Z,7.10
2023-03-16T19:15:40.531Z,7.10
2023-03-16T19:20:50.148Z,7.00
2023-03-16T19:25:55.993Z,7.00
2023-03-16T19:30:59.459Z,6.90
2023-03-16T19:36:04.777Z,6.80
2023-03-16T19:41:19.404Z,6.70
2023-03-16T19:46:23.426Z,6.70
2023-03-16T19:51:29.291Z,6.60
2023-03-16T19:56:32.841Z,6.50
2023-03-16T20:01:36.160Z,6.50
2023-03-16T20:06:41.385Z,6.60
2023-03-16T20:11:45.309Z,6.50
2023-03-16T20:16:49.415Z,6.50
2023-03-16T20:21:54.386Z,6.40
2023-03-16T20:26:58.110Z,6.40
2023-03-16T20:32:02.204Z,6.40
2023-03-16T20:37:21.170Z,6.30
2023-03-16T20:42:28.634Z,6.20
2023-03-16T20:47:32.250Z,6.10
2023-03-16T20:52:37.062Z,6.00
2023-03-16T20:57:43.370Z,5.90
2023-03-16T21:02:47.300Z,5.90
2023-03-16T21:07:53.222Z,5.70
2023-03-16T21:12:58.185Z,5.70
2023-03-16T21:18:03.809Z,5.60
2023-03-16T21:23:13.103Z,5.50
2023-03-16T21:28:18.337Z,5.40
2023-03-16T21:33:29.900Z,5.30
2023-03-16T21:38:37.365Z,5.30
2023-03-16T21:43:40.686Z,5.20
2023-03-16T21:48:44.623Z,5.20
2023-03-16T21:53:50.263Z,5.10
2023-03-16T21:58:53.693Z,5.00
2023-03-16T22:03:58.456Z,5.00
2023-03-16T22:09:04.121Z,5.00
2023-03-16T22:14:09.905Z,5.00
2023-03-16T22:19:14.725Z,4.90
2023-03-16T22:24:21.122Z,4.80
2023-03-16T22:29:26.521Z,4.80
2023-03-16T22:34:33.002Z,4.90
2023-03-16T22:39:39.669Z,4.80
2023-03-16T22:44:42.880Z,4.80
2023-03-16T22:49:46.234Z,4.80
2023-03-16T22:54:50.936Z,4.80
2023-03-16T22:59:54.497Z,4.80
2023-03-16T23:04:57.757Z,4.80
2023-03-16T23:10:02.501Z,4.80
2023-03-16T23:15:16.339Z,4.80
2023-03-16T23:20:22.610Z,4.80
2023-03-16T23:25:27.574Z,4.80
2023-03-16T23:30:32.055Z,4.70
2023-03-16T23:35:36.038Z,4.70
2023-03-16T23:40:41.520Z,4.70
2023-03-16T23:45:47.738Z,4.70
2023-03-16T23:50:54.666Z,4.70
2023-03-16T23:56:00.015Z,4.70
